Aviation Digital Data Service (ADDS)

Output produced by METARs form (0013 UTC 20 April 2019)
found at http://www.aviationweather.gov/metar/data/
 
Forecast for: WAOO (SYAMSUDIN NOOR , ID)
Text: TAF WAOO 192300Z 2000/2024 06007KT 9999 SCT018
Forecast period: 0000 UTC 20 April 2019 to 0000 UTC 21 April 2019
Forecast type: FROM: standard forecast or significant change
Winds: from the ENE (60 degrees) at 8 MPH (7 knots; 3.6 m/s)
Visibility: 6 or more miles 10+ km)
Ceiling: at least 12,000 feet AGL
Clouds: scattered clouds at 1800 feet AGL
Weather: no significant weather forecast for this period
Text: TEMPO 2006/2010 6000 TSRA FEW015CB
Forecast period: 0600 to 1000 UTC 20 April 2019
Forecast type: TEMPORARY: The following changes expected for less than half the time period
Visibility: 4 miles (6 km)
Ceiling: at least 12,000 feet AGL
Clouds: few clouds at 1500 feet AGL
Weather: TSRA  (rain associated with thunderstorm(s))